Time;durP1;ratioP1;P1;durP2;ratioP2;P2;SDS_P1;SDS_P2;PMS_P1;PMS_P2;Temp;Humidity;BMP_temperature;BMP_pressure;BME280_temperature;BME280_humidity;BME280_pressure;Samples;Min_cycle;Max_cycle;Signal;HPM_P1;HPM_P2
2023/02/14 00:01:16;;;;;;;56.33;20.92;;;;;;;-2.82;100.00;100508.13;4190918;28;20044;-75
2023/02/14 00:03:16;;;;;;;27.13;14.65;;;;;;;-2.84;100.00;100510.25;4189664;28;20469;-74
2023/02/14 00:05:16;;;;;;;30.02;14.70;;;;;;;-2.87;100.00;100508.03;4190384;28;20040;-75
2023/02/14 00:07:17;;;;;;;28.88;15.43;;;;;;;-2.88;100.00;100503.69;4190679;28;20048;-74
2023/02/14 00:09:18;;;;;;;31.17;16.17;;;;;;;-2.88;100.00;100498.28;4190631;28;20063;-75
2023/02/14 00:11:19;;;;;;;31.75;17.63;;;;;;;-2.90;100.00;100503.91;4190747;28;20055;-75
2023/02/14 00:13:19;;;;;;;31.45;16.95;;;;;;;-2.96;100.00;100498.66;4189095;28;20064;-75
2023/02/14 00:15:23;;;;;;;36.03;17.92;;;;;;;-3.00;100.00;100503.72;4189935;28;20149;-75
2023/02/14 00:17:24;;;;;;;32.47;16.83;;;;;;;-3.02;100.00;100507.72;4193131;28;20086;-74
2023/02/14 00:19:24;;;;;;;36.35;15.98;;;;;;;-3.07;100.00;100503.00;4190578;28;20048;-74
2023/02/14 00:21:25;;;;;;;24.80;14.07;;;;;;;-3.10;100.00;100498.09;4192898;28;20059;-74
2023/02/14 00:23:25;;;;;;;31.63;15.18;;;;;;;-3.13;100.00;100510.22;4194525;28;20049;-75
2023/02/14 00:25:25;;;;;;;24.88;13.27;;;;;;;-3.16;100.00;100501.75;4190727;28;20085;-75
2023/02/14 00:27:25;;;;;;;28.88;13.38;;;;;;;-3.16;100.00;100507.97;4189325;28;20120;-75
2023/02/14 00:29:28;;;;;;;23.88;13.68;;;;;;;-3.18;100.00;100504.69;4191820;28;20072;-74
2023/02/14 00:31:29;;;;;;;23.75;14.57;;;;;;;-3.15;100.00;100503.38;4193660;28;20029;-74
2023/02/14 00:33:29;;;;;;;24.80;13.48;;;;;;;-3.13;100.00;100502.09;4198561;28;20067;-74
2023/02/14 00:35:29;;;;;;;23.98;13.40;;;;;;;-3.10;100.00;100511.63;4193582;28;20417;-75
2023/02/14 00:37:30;;;;;;;20.05;12.27;;;;;;;-3.10;100.00;100511.63;4197276;28;20557;-74
2023/02/14 00:39:30;;;;;;;20.77;12.55;;;;;;;-3.08;100.00;100520.31;4193362;28;20122;-75
2023/02/14 00:41:31;;;;;;;20.95;12.55;;;;;;;-3.04;100.00;100515.28;4193604;28;20029;-75
2023/02/14 00:43:31;;;;;;;23.48;12.15;;;;;;;-3.03;100.00;100517.75;4197824;28;20098;-75
2023/02/14 00:45:31;;;;;;;19.60;12.38;;;;;;;-2.99;100.00;100518.06;4192334;28;20044;-75
2023/02/14 00:47:32;;;;;;;19.83;12.88;;;;;;;-2.94;100.00;100518.19;4193673;28;20047;-74
2023/02/14 00:49:32;;;;;;;17.75;11.85;;;;;;;-2.87;100.00;100513.47;4193653;28;20163;-74
2023/02/14 00:51:33;;;;;;;22.30;13.15;;;;;;;-2.84;100.00;100512.97;4193640;28;20469;-75
2023/02/14 00:53:33;;;;;;;18.48;11.65;;;;;;;-2.93;100.00;100512.53;4192283;28;20117;-74
2023/02/14 00:55:34;;;;;;;20.85;12.55;;;;;;;-2.87;100.00;100517.00;4195775;28;20055;-74
2023/02/14 00:57:34;;;;;;;21.55;12.50;;;;;;;-2.85;100.00;100514.03;4193626;28;20069;-74
2023/02/14 00:59:34;;;;;;;19.50;12.18;;;;;;;-2.85;100.00;100514.03;4193094;28;20120;-74
2023/02/14 01:01:35;;;;;;;20.33;12.73;;;;;;;-2.87;100.00;100519.69;4193243;28;20049;-74
2023/02/14 01:03:35;;;;;;;19.88;12.98;;;;;;;-2.79;100.00;100525.81;4192144;28;20163;-74
2023/02/14 01:05:35;;;;;;;24.75;14.02;;;;;;;-2.80;100.00;100521.47;4192958;28;20036;-74
2023/02/14 01:07:36;;;;;;;22.98;14.75;;;;;;;-2.69;100.00;100526.81;4193434;28;20123;-74
2023/02/14 01:09:36;;;;;;;23.77;13.88;;;;;;;-2.71;100.00;100528.13;4193435;28;20080;-74
2023/02/14 01:11:38;;;;;;;27.63;14.85;;;;;;;-2.72;100.00;100524.59;4193028;28;20036;-74
2023/02/14 01:13:38;;;;;;;26.58;15.13;;;;;;;-2.77;100.00;100524.50;4199754;28;20384;-74
2023/02/14 01:15:42;;;;;;;26.15;14.57;;;;;;;-2.84;100.00;100513.78;4193573;28;20036;-74
2023/02/14 01:17:42;;;;;;;23.48;14.13;;;;;;;-2.83;100.00;100515.44;4182614;28;20188;-74
2023/02/14 01:19:44;;;;;;;24.85;14.57;;;;;;;-2.86;100.00;100504.25;4192697;28;20044;-74
2023/02/14 01:21:44;;;;;;;23.38;15.48;;;;;;;-2.91;100.00;100501.44;4192856;28;20094;-74
2023/02/14 01:23:47;;;;;;;23.65;13.75;;;;;;;-2.98;100.00;100509.72;4192124;28;20136;-74
2023/02/14 01:25:47;;;;;;;;;;;;;;;-3.06;100.00;100503.84;4194783;28;20051;-74
2023/02/14 01:27:47;;;;;;;19.55;12.23;;;;;;;-3.16;100.00;100504.44;4193305;28;19912;-74
2023/02/14 01:29:48;;;;;;;26.42;14.30;;;;;;;-3.16;100.00;100510.69;4195170;28;20040;-74
2023/02/14 01:31:48;;;;;;;24.35;13.40;;;;;;;-3.14;100.00;100505.06;4193481;28;20101;-74
2023/02/14 01:33:49;;;;;;;23.77;13.75;;;;;;;-3.15;100.00;100506.91;4191518;28;20067;-74
2023/02/14 01:35:49;;;;;;;23.00;12.75;;;;;;;-3.29;100.00;100504.72;4192416;28;20076;-74
2023/02/14 01:37:49;;;;;;;23.88;13.52;;;;;;;-3.42;100.00;100498.50;4195941;28;20055;-73
2023/02/14 01:39:50;;;;;;;19.48;12.23;;;;;;;-3.44;100.00;100500.63;4192445;28;20032;-74
2023/02/14 01:41:52;;;;;;;19.23;11.52;;;;;;;-3.46;100.00;100496.50;4197115;28;20048;-74
2023/02/14 01:43:55;;;;;;;23.48;12.30;;;;;;;-3.54;100.00;100492.28;4193790;28;20037;-74
2023/02/14 01:45:55;;;;;;;21.52;11.32;;;;;;;-3.58;100.00;100501.09;4194325;28;20036;-74
2023/02/14 01:47:57;;;;;;;19.33;11.07;;;;;;;-3.54;100.00;100499.56;4197669;28;20048;-74
2023/02/14 01:50:07;;;;;;;17.95;10.55;;;;;;;-3.59;100.00;100499.44;4192667;28;20072;-74
2023/02/14 01:52:14;;;;;;;19.10;11.60;;;;;;;-3.61;100.00;100502.38;4191691;28;20102;-74
2023/02/14 01:54:16;;;;;;;19.35;12.18;;;;;;;-3.52;100.00;100508.28;4191653;28;20024;-74
2023/02/14 01:56:24;;;;;;;16.92;11.10;;;;;;;-3.48;100.00;100501.31;4191798;28;20043;-74
2023/02/14 01:58:28;;;;;;;19.23;11.15;;;;;;;-3.44;100.00;100513.31;4197099;28;20406;-74
2023/02/14 02:02:48;;;;;;;17.98;10.57;;;;;;;-3.53;100.00;100503.91;4191625;28;20082;-74
2023/02/14 02:04:52;;;;;;;17.40;11.38;;;;;;;-3.57;100.00;100513.56;4195566;28;20032;-74
2023/02/14 02:06:57;;;;;;;18.38;10.10;;;;;;;-3.64;100.00;100510.13;4191874;28;20114;-74
2023/02/14 02:09:13;;;;;;;18.23;10.82;;;;;;;-3.68;100.00;100504.38;4189838;28;20455;-74
2023/02/14 02:11:13;;;;;;;16.27;9.85;;;;;;;-3.73;100.00;100496.13;4195648;28;20076;-74
2023/02/14 02:13:17;;;;;;;20.40;10.73;;;;;;;-3.76;100.00;100504.75;4194934;28;20064;-74
2023/02/14 02:15:22;;;;;;;17.98;10.98;;;;;;;-3.74;100.00;100508.03;4193831;28;20559;-74
2023/02/14 02:17:41;;;;;;;18.58;11.00;;;;;;;-3.64;100.00;100511.00;4198504;28;20036;-74
2023/02/14 02:20:04;;;;;;;20.33;10.70;;;;;;;-3.69;100.00;100490.03;4194256;28;20151;-74
2023/02/14 02:22:37;;;;;;;19.42;10.40;;;;;;;-3.82;100.00;100484.84;4191800;28;20044;-74
2023/02/14 02:25:04;;;;;;;13.82;8.90;;;;;;;-3.93;100.00;100482.97;4191200;28;20048;-74
2023/02/14 02:27:26;;;;;;;19.58;11.00;;;;;;;-3.78;100.00;100496.88;4191892;28;20044;-74
2023/02/14 02:29:32;;;;;;;18.98;11.68;;;;;;;-3.67;100.00;100492.50;4191646;28;20380;-74
2023/02/14 02:32:10;;;;;;;19.70;10.63;;;;;;;-3.62;100.00;100491.81;4191143;28;20393;-74
2023/02/14 02:34:16;;;;;;;22.10;11.50;;;;;;;-3.62;100.00;100487.22;4191204;28;20125;-74
2023/02/14 02:36:30;;;;;;;18.30;10.18;;;;;;;-3.64;100.00;100494.75;4192311;28;20773;-74
2023/02/14 02:39:18;;;;;;;16.00;10.63;;;;;;;-3.69;100.00;100484.63;4191636;28;20045;-74
2023/02/14 02:41:22;;;;;;;21.95;11.55;;;;;;;-3.64;100.00;100489.34;4170364;28;20037;-74
2023/02/14 02:43:41;;;;;;;15.88;11.20;;;;;;;-3.59;100.00;100480.50;4185831;28;20060;-74
2023/02/14 02:48:39;;;;;;;21.33;10.95;;;;;;;-3.66;100.00;100488.72;4191102;28;20051;-74
2023/02/14 02:53:24;;;;;;;18.83;11.00;;;;;;;-3.57;100.00;100490.03;4189596;28;20102;-74
2023/02/14 02:56:44;;;;;;;22.13;11.52;;;;;;;-3.59;100.00;100484.03;4190442;28;20425;-74
2023/02/14 02:57:52;;;;;;;18.30;11.63;;;;;;;-3.60;100.00;100492.38;4190761;28;20047;-74
2023/02/14 02:59:54;;;;;;;;;;;;;;;-3.60;100.00;100495.91;4191293;28;20045;-74
2023/02/14 03:02:20;;;;;;;24.23;10.88;;;;;;;-3.61;100.00;100493.44;4190882;28;20018;-74
2023/02/14 03:06:40;;;;;;;15.05;10.07;;;;;;;-3.67;100.00;100497.91;4191224;28;20082;-74
2023/02/14 03:08:41;;;;;;;18.08;10.77;;;;;;;-3.73;100.00;100490.72;4191739;28;20375;-74
2023/02/14 03:10:41;;;;;;;20.10;10.35;;;;;;;-3.79;100.00;100494.41;4192625;28;20043;-74
2023/02/14 03:12:47;;;;;;;19.98;11.70;;;;;;;-3.93;100.00;100499.19;4190537;28;20064;-74
2023/02/14 03:15:09;;;;;;;18.23;10.50;;;;;;;-4.02;100.00;100492.50;4190428;28;20041;-74
2023/02/14 03:17:22;;;;;;;19.20;10.68;;;;;;;-4.05;100.00;100488.38;4190662;28;20106;-74
2023/02/14 03:22:13;;;;;;;20.13;11.48;;;;;;;-4.14;100.00;100489.75;4190527;28;20039;-74
2023/02/14 03:24:29;;;;;;;18.52;10.70;;;;;;;-4.13;100.00;100488.72;4191748;28;20028;-75
2023/02/14 03:26:38;;;;;;;21.92;11.48;;;;;;;-4.15;100.00;100488.09;4191022;28;20102;-74
2023/02/14 03:28:58;;;;;;;22.52;11.48;;;;;;;-4.20;100.00;100490.69;4191052;28;20037;-74
2023/02/14 03:31:26;;;;;;;18.85;10.45;;;;;;;-4.27;100.00;100488.09;4190267;28;20041;-74
2023/02/14 03:33:42;;;;;;;16.15;10.07;;;;;;;-4.40;100.00;100488.28;4189404;28;20071;-74
2023/02/14 03:36:21;;;;;;;18.13;10.73;;;;;;;-4.40;100.00;100484.75;4192561;28;20040;-74
2023/02/14 03:38:43;;;;;;;21.80;10.65;;;;;;;-4.43;100.00;100494.16;4152262;28;20037;-74
2023/02/14 03:40:53;;;;;;;16.92;9.98;;;;;;;-4.46;100.00;100481.13;4190647;28;20055;-74
2023/02/14 03:43:29;;;;;;;17.73;10.98;;;;;;;-4.40;100.00;100482.06;4190234;28;20091;-74
2023/02/14 03:45:39;;;;;;;17.10;10.27;;;;;;;-4.36;100.00;100477.84;4165228;28;20052;-74
2023/02/14 03:47:43;;;;;;;20.25;10.10;;;;;;;-4.30;100.00;100483.16;4193990;28;20039;-74
2023/02/14 03:49:49;;;;;;;20.67;10.90;;;;;;;-4.26;100.00;100484.34;4191285;28;20518;-74
2023/02/14 03:51:53;;;;;;;16.92;9.88;;;;;;;-4.27;100.00;100487.28;4195483;28;20042;-74
2023/02/14 03:53:56;;;;;;;18.77;10.02;;;;;;;-4.33;100.00;100480.09;4191621;28;20087;-74
2023/02/14 03:56:09;;;;;;;18.42;10.27;;;;;;;-4.37;100.00;100485.16;4190002;28;20157;-75
2023/02/14 03:58:18;;;;;;;22.08;11.02;;;;;;;-4.41;100.00;100478.53;4188350;28;20048;-74
2023/02/14 04:00:19;;;;;;;16.30;9.13;;;;;;;-4.52;100.00;100479.34;4190107;28;20119;-74
2023/02/14 04:02:28;;;;;;;18.98;9.48;;;;;;;-4.55;100.00;100485.19;4187567;28;20068;-74
2023/02/14 04:04:34;;;;;;;18.30;10.18;;;;;;;-4.52;100.00;100480.16;4189655;28;20047;-74
2023/02/14 04:06:35;;;;;;;20.95;10.30;;;;;;;-4.52;100.00;100477.47;4191325;28;20048;-74
2023/02/14 04:08:35;;;;;;;16.75;10.48;;;;;;;-4.44;100.00;100479.00;4189798;28;20087;-74
2023/02/14 04:10:36;;;;;;;18.60;10.10;;;;;;;-4.44;100.00;100480.88;4191454;28;20056;-74
2023/02/14 04:12:36;;;;;;;20.92;10.77;;;;;;;-4.41;100.00;100475.00;4194652;28;20036;-74
2023/02/14 04:14:37;;;;;;;15.48;10.15;;;;;;;-4.42;100.00;100478.78;4192086;28;20116;-74
2023/02/14 04:21:16;;;;;;;17.98;9.93;;;;;;;-4.58;100.00;100472.97;4189928;28;20492;-74
2023/02/14 04:23:16;;;;;;;18.00;10.10;;;;;;;-4.61;100.00;100476.13;4189964;28;20037;-74
2023/02/14 04:25:17;;;;;;;14.45;8.85;;;;;;;-4.61;100.00;100469.91;4192413;28;20110;-74
2023/02/14 04:27:18;;;;;;;17.15;10.85;;;;;;;-4.58;100.00;100462.16;4193453;28;20461;-74
2023/02/14 04:29:21;;;;;;;20.40;11.13;;;;;;;-4.55;100.00;100459.03;4192700;28;20120;-74
2023/02/14 04:31:22;;;;;;;19.67;10.57;;;;;;;-4.49;100.00;100467.25;4192709;28;20091;-74
2023/02/14 04:33:22;;;;;;;18.35;10.70;;;;;;;-4.41;100.00;100462.31;4193885;28;20470;-74
2023/02/14 04:35:22;;;;;;;16.63;10.25;;;;;;;-4.41;100.00;100456.91;4193977;28;20040;-74
2023/02/14 04:37:23;;;;;;;18.88;10.35;;;;;;;-4.43;100.00;100461.75;4191567;28;20040;-74
2023/02/14 04:39:23;;;;;;;18.98;10.05;;;;;;;-4.42;100.00;100457.16;4192493;28;20044;-74
2023/02/14 04:41:23;;;;;;;21.27;9.85;;;;;;;-4.47;100.00;100455.13;4190982;28;20040;-74
2023/02/14 04:43:24;;;;;;;18.98;10.70;;;;;;;-4.44;100.00;100446.59;4193640;28;20613;-74
2023/02/14 04:45:24;;;;;;;19.10;10.88;;;;;;;-4.45;100.00;100446.81;4191426;28;20044;-75
2023/02/14 04:47:25;;;;;;;20.20;10.10;;;;;;;-4.45;100.00;100444.94;4191374;28;20336;-74
2023/02/14 04:49:25;;;;;;;24.83;11.23;;;;;;;-4.47;100.00;100438.94;4193132;28;20052;-74
2023/02/14 04:51:25;;;;;;;22.65;11.52;;;;;;;-4.53;100.00;100440.69;4186926;28;20086;-74
2023/02/14 04:53:26;;;;;;;21.80;11.38;;;;;;;-4.65;100.00;100445.22;4192827;28;20032;-74
2023/02/14 04:55:26;;;;;;;19.98;11.02;;;;;;;-4.70;100.00;100445.13;4191946;28;20123;-74
2023/02/14 04:57:26;;;;;;;15.13;9.40;;;;;;;-4.68;100.00;100443.00;4189993;28;20051;-74
2023/02/14 04:59:27;;;;;;;19.08;10.38;;;;;;;-4.60;100.00;100448.06;4192858;28;20050;-74
2023/02/14 05:01:27;;;;;;;18.77;10.73;;;;;;;-4.53;100.00;100440.69;4194419;28;20059;-74
2023/02/14 05:03:27;;;;;;;16.10;9.57;;;;;;;-4.46;100.00;100446.00;4189263;28;20041;-74
2023/02/14 05:05:28;;;;;;;17.27;10.10;;;;;;;-4.47;100.00;100443.50;4192426;28;20048;-74
2023/02/14 05:07:28;;;;;;;17.77;10.25;;;;;;;-4.53;100.00;100431.78;4188200;28;20036;-75
2023/02/14 05:09:28;;;;;;;16.58;9.90;;;;;;;-4.56;100.00;100429.50;4187986;28;20072;-74
2023/02/14 05:11:29;;;;;;;19.77;10.25;;;;;;;-4.60;100.00;100431.88;4194254;28;20044;-74
2023/02/14 05:13:30;;;;;;;18.38;9.90;;;;;;;-4.61;100.00;100438.31;4191714;28;20093;-74
2023/02/14 05:15:31;;;;;;;19.42;9.98;;;;;;;-4.55;100.00;100441.97;4190504;28;20139;-75
2023/02/14 05:17:31;;;;;;;16.23;9.93;;;;;;;-4.58;100.00;100431.63;4193681;28;20146;-74
2023/02/14 05:19:32;;;;;;;22.85;10.98;;;;;;;-4.63;100.00;100432.34;4192700;28;20469;-75
2023/02/14 05:21:32;;;;;;;20.88;10.68;;;;;;;-4.61;100.00;100434.81;4192547;28;20044;-74
2023/02/14 05:23:32;;;;;;;18.38;10.30;;;;;;;-4.60;100.00;100434.56;4191425;28;20047;-74
2023/02/14 05:25:33;;;;;;;23.17;11.30;;;;;;;-4.56;100.00;100440.31;4194131;28;20040;-74
2023/02/14 05:27:33;;;;;;;21.58;11.35;;;;;;;-4.54;100.00;100435.53;4191610;28;20376;-74
2023/02/14 05:29:33;;;;;;;22.95;12.23;;;;;;;-4.52;100.00;100438.81;4192741;28;20536;-74
2023/02/14 05:31:34;;;;;;;25.58;12.95;;;;;;;-4.55;100.00;100440.09;4192766;28;20036;-74
2023/02/14 05:33:34;;;;;;;19.98;11.63;;;;;;;-4.62;100.00;100433.16;4197594;28;20500;-75
2023/02/14 05:35:35;;;;;;;22.77;12.48;;;;;;;-4.66;100.00;100430.06;4196405;28;20619;-75
2023/02/14 05:37:35;;;;;;;21.13;11.32;;;;;;;-4.67;100.00;100427.63;4191774;28;20634;-74
2023/02/14 05:39:35;;;;;;;20.30;11.00;;;;;;;-4.65;100.00;100437.13;4192719;28;20048;-75
2023/02/14 05:41:35;;;;;;;19.40;11.73;;;;;;;-4.70;100.00;100426.22;4193224;28;20413;-75
2023/02/14 05:43:36;;;;;;;23.85;13.73;;;;;;;-4.74;100.00;100425.00;4190972;28;20427;-74
2023/02/14 05:45:36;;;;;;;20.08;11.85;;;;;;;-4.73;100.00;100436.63;4192789;28;20388;-75
2023/02/14 05:47:37;;;;;;;17.88;11.05;;;;;;;-4.75;100.00;100434.16;4192187;28;20040;-74
2023/02/14 05:49:38;;;;;;;18.15;12.43;;;;;;;-4.82;100.00;100442.34;4195082;28;20472;-74
2023/02/14 05:51:38;;;;;;;21.88;12.20;;;;;;;-4.82;100.00;100430.72;4192680;28;20544;-75
2023/02/14 05:53:38;;;;;;;18.98;11.73;;;;;;;-4.81;100.00;100437.78;4191153;28;20036;-74
2023/02/14 05:55:39;;;;;;;19.92;11.57;;;;;;;-4.85;100.00;100436.59;4192033;28;20040;-74
2023/02/14 05:57:40;;;;;;;21.15;11.25;;;;;;;-4.83;100.00;100437.19;4192927;28;20028;-74
2023/02/14 05:59:40;;;;;;;21.33;11.57;;;;;;;-4.83;100.00;100440.72;4193251;28;20048;-74
2023/02/14 06:01:40;;;;;;;20.05;11.80;;;;;;;-4.82;100.00;100438.84;4191579;28;20040;-74
2023/02/14 06:03:41;;;;;;;19.20;11.25;;;;;;;-4.87;100.00;100434.13;4189409;28;20054;-75
2023/02/14 06:05:41;;;;;;;21.67;11.23;;;;;;;-4.92;100.00;100439.38;4190202;28;20556;-74
2023/02/14 06:07:42;;;;;;;20.42;11.85;;;;;;;-4.96;100.00;100443.59;4088815;28;20048;-75
2023/02/14 06:09:42;;;;;;;28.77;14.65;;;;;;;-4.99;100.00;100444.06;4190550;28;20435;-74
2023/02/14 06:11:43;;;;;;;22.40;12.52;;;;;;;-5.05;100.00;100444.94;4194185;28;20044;-74
2023/02/14 06:13:43;;;;;;;26.88;15.23;;;;;;;-5.03;100.00;100450.16;4197598;28;20072;-74
2023/02/14 06:15:43;;;;;;;29.55;14.88;;;;;;;-5.15;100.00;100450.06;4191022;28;20049;-75
2023/02/14 06:17:45;;;;;;;28.08;15.13;;;;;;;-5.16;100.00;100448.44;4191635;28;20044;-75
2023/02/14 06:19:46;;;;;;;34.70;16.70;;;;;;;-5.21;100.00;100456.41;4192003;28;20045;-74
2023/02/14 06:21:47;;;;;;;30.83;16.58;;;;;;;-5.24;100.00;100446.88;4196773;28;20097;-74
2023/02/14 06:23:47;;;;;;;31.00;15.73;;;;;;;-5.18;100.00;100450.53;4191491;28;20068;-74
2023/02/14 06:25:48;;;;;;;39.95;18.45;;;;;;;-5.11;100.00;100457.50;4191128;28;20082;-74
2023/02/14 06:27:48;;;;;;;36.72;18.10;;;;;;;-4.97;100.00;100463.53;4195892;28;20040;-74
2023/02/14 06:29:49;;;;;;;38.42;19.98;;;;;;;-4.94;100.00;100462.28;4193491;28;20052;-74
2023/02/14 06:31:49;;;;;;;38.45;20.90;;;;;;;-4.95;100.00;100464.16;4195312;28;20040;-74
2023/02/14 06:33:51;;;;;;;43.70;20.60;;;;;;;-4.93;100.00;100464.75;4191055;28;20041;-75
2023/02/14 06:35:54;;;;;;;36.53;18.73;;;;;;;-4.95;100.00;100468.72;4191566;28;20135;-74
2023/02/14 06:37:55;;;;;;;39.33;20.63;;;;;;;-5.08;100.00;100461.63;4190464;28;20299;-74
2023/02/14 06:39:55;;;;;;;36.90;17.77;;;;;;;-5.09;100.00;100471.59;4190291;28;20038;-74
2023/02/14 06:41:55;;;;;;;35.17;17.83;;;;;;;-5.09;100.00;100473.47;4190049;28;20059;-75
2023/02/14 06:43:56;;;;;;;35.83;18.15;;;;;;;-5.08;100.00;100472.41;4189976;28;20500;-74
2023/02/14 06:45:56;;;;;;;35.10;17.70;;;;;;;-5.12;100.00;100463.13;4190356;28;20081;-74
2023/02/14 06:47:56;;;;;;;32.55;15.50;;;;;;;-5.18;100.00;100462.16;4195758;28;20516;-74
2023/02/14 06:49:58;;;;;;;39.42;20.15;;;;;;;-5.25;100.00;100458.72;4191632;28;20508;-74
2023/02/14 06:51:59;;;;;;;41.13;20.35;;;;;;;-5.25;100.00;100466.81;4196093;28;20065;-74
2023/02/14 06:53:59;;;;;;;44.83;20.40;;;;;;;-5.28;100.00;100472.66;4190488;28;20127;-74
2023/02/14 06:55:59;;;;;;;36.67;18.55;;;;;;;-5.32;100.00;100459.84;4196687;28;20083;-74
2023/02/14 06:58:00;;;;;;;35.17;17.98;;;;;;;-5.31;100.00;100458.78;4192775;28;20056;-74
2023/02/14 07:00:00;;;;;;;30.00;16.33;;;;;;;-5.29;100.00;100462.09;4191245;28;20175;-74
2023/02/14 07:02:00;;;;;;;34.10;15.82;;;;;;;-5.31;100.00;100448.81;4191500;28;20083;-74
2023/02/14 07:04:01;;;;;;;29.08;15.43;;;;;;;-5.31;100.00;100456.09;4190552;28;20590;-74
2023/02/14 07:06:01;;;;;;;29.38;15.18;;;;;;;-5.33;100.00;100448.22;4191416;28;20393;-74
2023/02/14 07:08:02;;;;;;;26.85;13.18;;;;;;;-5.29;100.00;100449.44;4191008;28;20039;-74
2023/02/14 07:10:02;;;;;;;25.65;13.02;;;;;;;-5.28;100.00;100450.25;4191569;28;20024;-74
2023/02/14 07:12:02;;;;;;;19.60;11.90;;;;;;;-5.32;100.00;100447.16;4191388;28;20028;-74
2023/02/14 07:14:03;;;;;;;21.25;11.25;;;;;;;-5.28;100.00;100442.16;4190865;28;20071;-74
2023/02/14 07:16:03;;;;;;;20.58;10.73;;;;;;;-5.29;100.00;100443.22;4192011;28;20077;-74
2023/02/14 07:18:04;;;;;;;23.35;10.88;;;;;;;-5.32;100.00;100447.16;4191589;28;20065;-74
2023/02/14 07:20:06;;;;;;;21.83;11.63;;;;;;;-5.26;100.00;100448.16;4191170;28;20029;-74
2023/02/14 07:22:07;;;;;;;19.77;10.18;;;;;;;-5.23;100.00;100442.28;4193221;28;20342;-74
2023/02/14 07:24:07;;;;;;;26.35;11.35;;;;;;;-5.21;100.00;100441.03;4190876;28;20039;-74
2023/02/14 07:26:07;;;;;;;19.40;10.55;;;;;;;-5.14;100.00;100446.31;4191049;28;20461;-73
2023/02/14 07:28:08;;;;;;;48.00;23.83;;;;;;;-5.13;100.00;100438.03;4191191;28;20060;-74
2023/02/14 07:30:10;;;;;;;72.68;34.15;;;;;;;-5.03;100.00;100444.75;4190858;28;20016;-74
2023/02/14 07:32:10;;;;;;;111.85;46.45;;;;;;;-4.95;100.00;100450.66;4191108;28;20089;-74
2023/02/14 07:34:11;;;;;;;80.53;33.20;;;;;;;-4.92;100.00;100444.78;4195264;28;20085;-74
2023/02/14 07:36:11;;;;;;;42.45;19.98;;;;;;;-4.86;100.00;100451.16;4191071;28;20474;-74
2023/02/14 07:38:11;;;;;;;23.88;12.07;;;;;;;-4.77;100.00;100452.47;4191006;28;20487;-74
2023/02/14 07:40:12;;;;;;;22.00;11.77;;;;;;;-4.69;100.00;100459.44;4190920;28;20073;-74
2023/02/14 07:42:12;;;;;;;18.35;10.77;;;;;;;-4.64;100.00;100446.88;4191022;28;20024;-74
2023/02/14 07:44:13;;;;;;;21.55;10.65;;;;;;;-4.52;100.00;100446.91;4190626;28;20029;-74
2023/02/14 07:46:13;;;;;;;19.92;11.60;;;;;;;-4.41;100.00;100448.00;4191096;28;20514;-74
2023/02/14 07:48:13;;;;;;;20.55;11.70;;;;;;;-4.37;100.00;100441.91;4190852;28;20120;-74
2023/02/14 07:50:14;;;;;;;28.05;13.00;;;;;;;-4.27;100.00;100441.31;4190778;28;20094;-74
2023/02/14 07:52:15;;;;;;;26.40;12.95;;;;;;;-4.24;100.00;100433.56;4190627;28;20054;-74
2023/02/14 07:54:15;;;;;;;20.85;11.45;;;;;;;-4.16;100.00;100435.09;4190448;28;20032;-73
2023/02/14 07:56:16;;;;;;;21.33;10.88;;;;;;;-4.14;100.00;100432.97;4190697;28;20059;-74
2023/02/14 07:58:17;;;;;;;18.33;10.73;;;;;;;-4.12;100.00;100433.59;4191163;28;20150;-74
2023/02/14 08:00:18;;;;;;;21.75;11.23;;;;;;;-4.12;100.00;100430.06;4190505;28;20038;-74
2023/02/14 08:02:19;;;;;;;18.35;11.30;;;;;;;-4.02;100.00;100441.13;4190438;28;20086;-74
2023/02/14 08:04:20;;;;;;;21.10;12.63;;;;;;;-3.99;100.00;100435.22;4196009;28;20020;-74
2023/02/14 08:06:21;;;;;;;16.95;10.82;;;;;;;-4.00;100.00;100429.00;4190941;28;20572;-74
2023/02/14 08:08:26;;;;;;;21.05;12.82;;;;;;;-3.96;100.00;100430.19;4190464;28;20129;-74
2023/02/14 08:10:26;;;;;;;18.63;11.35;;;;;;;-3.91;100.00;100436.75;4192333;28;20059;-74
2023/02/14 08:14:45;;;;;;;19.88;12.02;;;;;;;-3.81;100.00;100434.28;4190881;28;20043;-74
2023/02/14 08:16:46;;;;;;;19.42;11.98;;;;;;;-3.77;100.00;100430.88;4190334;28;20080;-74
2023/02/14 08:18:46;;;;;;;21.88;10.10;;;;;;;-3.72;100.00;100428.31;4192088;28;20095;-74
2023/02/14 08:20:50;;;;;;;19.58;10.77;;;;;;;-3.66;100.00;100418.41;4190306;28;20052;-74
2023/02/14 08:22:50;;;;;;;23.15;12.38;;;;;;;-3.57;100.00;100425.09;4189893;28;20528;-74
2023/02/14 08:25:28;;;;;;;20.27;11.45;;;;;;;-3.47;100.00;100421.78;4193725;28;20052;-74
2023/02/14 08:27:28;;;;;;;23.40;12.30;;;;;;;-3.43;100.00;100420.25;4189763;28;20098;-74
2023/02/14 08:29:28;;;;;;;24.15;12.18;;;;;;;-3.33;100.00;100427.75;4190315;28;20083;-74
2023/02/14 08:31:30;;;;;;;21.23;12.02;;;;;;;-3.29;100.00;100423.50;4191326;28;20041;-74
2023/02/14 08:33:31;;;;;;;23.20;13.40;;;;;;;-3.23;100.00;100426.06;4190084;28;20041;-74
2023/02/14 08:35:31;;;;;;;28.65;16.33;;;;;;;-3.17;100.00;100419.69;4191144;28;20033;-74
2023/02/14 08:37:32;;;;;;;23.48;13.57;;;;;;;-3.11;100.00;100420.63;4192262;28;20048;-74
2023/02/14 08:39:32;;;;;;;26.20;14.93;;;;;;;-3.04;100.00;100417.78;4190252;28;20045;-74
2023/02/14 08:41:33;;;;;;;22.77;13.10;;;;;;;-2.96;100.00;100415.50;4190441;28;20435;-74
2023/02/14 08:43:33;;;;;;;27.70;15.50;;;;;;;-2.90;100.00;100419.94;4189772;28;20045;-74
2023/02/14 08:45:34;;;;;;;32.50;18.88;;;;;;;-2.79;100.00;100422.84;4190400;28;20336;-74
2023/02/14 08:47:37;;;;;;;32.35;17.65;;;;;;;-2.71;100.00;100411.63;4190517;28;20049;-74
2023/02/14 08:49:37;;;;;;;26.10;14.43;;;;;;;-2.62;100.00;100421.00;4190508;28;20048;-74
2023/02/14 08:51:37;;;;;;;26.20;14.50;;;;;;;-2.58;100.00;100411.28;4193378;28;20488;-74
2023/02/14 08:53:39;;;;;;;25.00;12.98;;;;;;;-2.47;100.00;100412.31;4192889;28;20047;-74
2023/02/14 08:55:39;;;;;;;28.10;14.32;;;;;;;-2.37;100.00;100418.72;4194009;28;20422;-74
2023/02/14 08:57:40;;;;;;;27.20;13.45;;;;;;;-2.33;100.00;100419.03;4193355;28;20388;-74
2023/02/14 08:59:40;;;;;;;22.95;12.93;;;;;;;-2.30;100.00;100421.28;4193245;28;20171;-74
2023/02/14 09:01:40;;;;;;;21.67;11.85;;;;;;;-2.25;100.00;100413.22;4193610;28;20326;-74
2023/02/14 09:03:41;;;;;;;26.45;14.32;;;;;;;-2.15;100.00;100415.25;4191781;28;20505;-74
2023/02/14 09:05:42;;;;;;;27.42;14.32;;;;;;;-2.06;100.00;100420.03;4199208;28;20418;-74
2023/02/14 09:07:42;;;;;;;23.73;13.38;;;;;;;-1.98;100.00;100419.63;4193419;28;20037;-74
2023/02/14 09:09:42;;;;;;;22.13;12.40;;;;;;;-1.96;100.00;100413.94;4193447;28;20032;-74
2023/02/14 09:11:43;;;;;;;20.38;12.60;;;;;;;-1.86;100.00;100408.66;4197729;28;20093;-74
2023/02/14 09:13:44;;;;;;;24.35;12.48;;;;;;;-1.79;100.00;100409.31;4192496;28;20346;-74
2023/02/14 09:15:45;;;;;;;24.67;11.90;;;;;;;-1.75;100.00;100407.72;4193702;28;20444;-74
2023/02/14 09:17:45;;;;;;;24.98;12.60;;;;;;;-1.68;100.00;100412.97;4196072;28;20040;-74
2023/02/14 09:19:45;;;;;;;22.20;12.40;;;;;;;-1.63;100.00;100407.63;4198583;28;20073;-74
2023/02/14 09:21:46;;;;;;;21.63;10.63;;;;;;;-1.53;100.00;100404.22;4192635;28;20045;-74
2023/02/14 09:23:46;;;;;;;20.17;10.95;;;;;;;-1.46;100.00;100396.72;4192218;28;20428;-74
2023/02/14 09:25:47;;;;;;;22.98;10.88;;;;;;;-1.40;100.00;100397.63;4192733;28;20043;-74
2023/02/14 09:27:47;;;;;;;19.13;11.45;;;;;;;-1.28;100.00;100395.59;4193095;28;20040;-74
2023/02/14 09:29:47;;;;;;;22.00;11.80;;;;;;;-1.24;100.00;100389.41;4198521;28;20047;-74
2023/02/14 09:31:50;;;;;;;20.98;11.32;;;;;;;-1.21;100.00;100399.75;4192796;28;20051;-74
2023/02/14 09:36:19;;;;;;;22.42;11.27;;;;;;;-1.13;100.00;100396.59;4192992;28;20162;-74